createdAt,value
2023-09-04T00:02:09.801Z,7.08
2023-09-04T00:04:36.663Z,5.95
2023-09-04T00:07:04.187Z,6.90
2023-09-04T00:09:31.031Z,7.25
2023-09-04T00:11:57.879Z,7.49
2023-09-04T00:14:24.663Z,7.39
2023-09-04T00:16:51.426Z,7.14
2023-09-04T00:19:18.920Z,7.27
2023-09-04T00:21:45.847Z,6.92
2023-09-04T00:24:12.833Z,6.95
2023-09-04T00:26:39.698Z,7.07
2023-09-04T00:29:06.565Z,7.00
2023-09-04T00:31:33.500Z,7.16
2023-09-04T00:34:00.429Z,7.40
2023-09-04T00:36:27.576Z,7.47
2023-09-04T00:38:54.589Z,7.26
2023-09-04T00:41:21.479Z,6.91
2023-09-04T00:43:48.274Z,6.79
2023-09-04T00:46:16.513Z,7.13
2023-09-04T00:48:44.924Z,6.76
2023-09-04T00:51:11.980Z,6.77
2023-09-04T00:53:39.403Z,7.15
2023-09-04T00:56:08.486Z,6.66
2023-09-04T00:58:35.988Z,6.34
2023-09-04T01:01:03.783Z,6.57
2023-09-04T01:03:32.418Z,5.12
2023-09-04T01:06:00.908Z,6.51
2023-09-04T01:08:28.183Z,6.48
2023-09-04T01:11:17.820Z,6.84
2023-09-04T01:13:55.043Z,6.53
2023-09-04T01:16:23.349Z,6.67
2023-09-04T01:18:52.123Z,7.09
2023-09-04T01:21:19.047Z,6.78
2023-09-04T01:23:45.888Z,6.52
2023-09-04T01:26:42.712Z,6.25
2023-09-04T01:29:36.007Z,6.62
2023-09-04T01:32:37.509Z,6.44
2023-09-04T01:35:06.816Z,6.16
2023-09-04T01:37:35.028Z,6.38
2023-09-04T01:40:02.397Z,6.31
2023-09-04T01:42:29.309Z,6.06
2023-09-04T01:44:56.023Z,5.58
2023-09-04T01:47:22.851Z,6.36
2023-09-04T01:49:50.322Z,6.70
2023-09-04T01:52:17.951Z,6.52
2023-09-04T01:54:44.808Z,6.32
2023-09-04T01:57:11.573Z,6.43
2023-09-04T01:59:38.321Z,6.21
2023-09-04T02:02:05.265Z,6.05
2023-09-04T02:04:33.171Z,6.36
2023-09-04T02:07:00.018Z,6.51
2023-09-04T02:09:26.843Z,6.26
2023-09-04T02:11:54.086Z,6.32
2023-09-04T02:14:21.134Z,6.16
2023-09-04T02:16:47.898Z,6.37
2023-09-04T02:19:15.080Z,6.13
2023-09-04T02:21:42.724Z,6.00
2023-09-04T02:24:09.580Z,6.21
2023-09-04T02:26:36.470Z,6.28
2023-09-04T02:29:03.326Z,6.25
2023-09-04T02:31:30.211Z,5.87
2023-09-04T02:33:57.015Z,6.31
2023-09-04T02:36:24.878Z,6.38
2023-09-04T02:38:51.626Z,6.21
2023-09-04T02:41:18.372Z,6.50
2023-09-04T02:43:45.237Z,6.05
2023-09-04T02:46:12.308Z,4.83
2023-09-04T02:48:39.791Z,5.29
2023-09-04T02:51:06.660Z,5.86
2023-09-04T02:53:34.196Z,5.82
2023-09-04T02:56:02.100Z,5.13
2023-09-04T02:58:28.928Z,5.03
2023-09-04T03:00:55.832Z,5.35
2023-09-04T03:03:22.783Z,5.53
2023-09-04T03:05:49.662Z,5.19
2023-09-04T03:08:17.168Z,5.22
2023-09-04T03:10:44.276Z,5.58
2023-09-04T03:13:11.199Z,5.64
2023-09-04T03:15:38.305Z,5.63
2023-09-04T03:18:07.279Z,5.52
2023-09-04T03:20:35.189Z,5.55
2023-09-04T03:23:02.385Z,5.61
2023-09-04T03:25:29.390Z,5.24
2023-09-04T03:27:56.647Z,5.43
2023-09-04T03:30:24.207Z,5.29
2023-09-04T03:32:51.399Z,5.47
2023-09-04T03:35:19.065Z,5.38
2023-09-04T03:37:46.047Z,5.01
2023-09-04T03:40:21.923Z,5.31
2023-09-04T03:42:49.017Z,5.12
2023-09-04T03:45:16.044Z,4.97
2023-09-04T03:47:44.137Z,5.50
2023-09-04T03:50:14.917Z,5.49
2023-09-04T03:52:43.700Z,5.01
2023-09-04T03:55:12.528Z,4.69
2023-09-04T03:57:40.424Z,5.07
2023-09-04T04:00:18.325Z,5.38
2023-09-04T04:02:48.848Z,4.92
2023-09-04T04:05:17.015Z,4.93
2023-09-04T04:07:43.821Z,5.27
2023-09-04T04:10:11.180Z,5.27
2023-09-04T04:12:38.373Z,5.17
2023-09-04T04:15:08.312Z,5.36
2023-09-04T04:17:36.265Z,5.32
2023-09-04T04:20:13.823Z,5.19
2023-09-04T04:22:41.517Z,5.53
2023-09-04T04:25:09.017Z,5.28
2023-09-04T04:27:35.947Z,5.35
2023-09-04T04:30:03.761Z,5.09
2023-09-04T04:32:31.536Z,4.49
2023-09-04T04:34:58.474Z,4.89
2023-09-04T04:37:25.225Z,5.35
2023-09-04T04:39:53.718Z,5.50
2023-09-04T04:42:20.930Z,4.42
2023-09-04T04:44:48.285Z,3.51
2023-09-04T04:47:15.878Z,2.59
2023-09-04T04:49:44.796Z,2.92
2023-09-04T04:52:11.692Z,2.84
2023-09-04T04:54:38.956Z,3.36
2023-09-04T04:57:06.117Z,3.80
2023-09-04T04:59:32.954Z,3.80
2023-09-04T05:02:01.475Z,4.66
2023-09-04T05:04:29.498Z,4.21
2023-09-04T05:06:56.575Z,4.18
2023-09-04T05:09:23.603Z,4.21
2023-09-04T05:11:50.940Z,3.64
2023-09-04T05:14:17.895Z,4.39
2023-09-04T05:16:44.711Z,4.40
2023-09-04T05:19:11.564Z,4.63
2023-09-04T05:21:46.623Z,4.52
2023-09-04T05:24:22.727Z,5.21
2023-09-04T05:26:49.628Z,5.92
2023-09-04T05:29:16.317Z,6.14
2023-09-04T05:31:43.213Z,5.93
2023-09-04T05:34:10.005Z,6.45
2023-09-04T05:36:37.013Z,6.43
2023-09-04T05:39:04.147Z,6.56
2023-09-04T05:41:31.237Z,6.45
2023-09-04T05:43:58.113Z,6.92
2023-09-04T05:46:24.989Z,7.02
2023-09-04T05:48:51.838Z,6.35
2023-09-04T05:51:18.620Z,6.99
2023-09-04T05:53:45.406Z,7.24
2023-09-04T05:56:12.623Z,6.66
2023-09-04T05:58:47.402Z,6.93
2023-09-04T06:01:14.658Z,7.66
2023-09-04T06:03:42.048Z,7.25
2023-09-04T06:06:08.906Z,7.96
2023-09-04T06:08:35.783Z,8.04
2023-09-04T06:11:03.664Z,7.32
2023-09-04T06:13:31.324Z,7.53
2023-09-04T06:15:59.499Z,6.91
2023-09-04T06:18:28.432Z,7.65
2023-09-04T06:20:55.218Z,7.81
2023-09-04T06:23:21.967Z,9.45
2023-09-04T06:25:48.857Z,8.54
2023-09-04T06:28:15.700Z,9.20
2023-09-04T06:30:42.577Z,9.50
2023-09-04T06:33:09.395Z,10.34
2023-09-04T06:35:36.350Z,9.11
2023-09-04T06:38:03.691Z,9.77
2023-09-04T06:40:30.437Z,10.07
2023-09-04T06:42:57.243Z,10.03
2023-09-04T06:45:24.235Z,11.18
2023-09-04T06:47:54.398Z,11.17
2023-09-04T06:50:21.279Z,11.77
2023-09-04T06:52:48.114Z,11.43
2023-09-04T06:55:14.959Z,12.16
2023-09-04T06:57:41.755Z,11.69
2023-09-04T07:00:12.520Z,11.82
2023-09-04T07:02:39.737Z,11.85
2023-09-04T07:05:09.653Z,10.79
2023-09-04T07:07:38.676Z,11.50
2023-09-04T07:10:07.034Z,11.62
2023-09-04T07:12:37.180Z,12.04
2023-09-04T07:15:04.509Z,12.10
2023-09-04T07:17:31.542Z,12.21
2023-09-04T07:19:58.523Z,12.88
2023-09-04T07:22:25.856Z,13.00
2023-09-04T07:24:55.825Z,12.62
2023-09-04T07:27:22.718Z,12.81
2023-09-04T07:29:49.602Z,12.25
2023-09-04T07:32:16.487Z,13.03
2023-09-04T07:34:43.268Z,13.49
2023-09-04T07:37:10.173Z,13.23
2023-09-04T07:39:36.928Z,13.45
2023-09-04T07:42:03.968Z,13.53
2023-09-04T07:44:32.892Z,13.55
2023-09-04T07:46:59.796Z,13.39
2023-09-04T07:49:26.545Z,13.76
2023-09-04T07:51:54.489Z,13.86
2023-09-04T07:54:22.665Z,13.73
2023-09-04T07:56:49.581Z,13.17
2023-09-04T07:59:16.325Z,13.93
2023-09-04T08:01:43.605Z,14.97
2023-09-04T08:04:11.042Z,15.07
2023-09-04T08:06:37.859Z,14.22
2023-09-04T08:09:04.640Z,15.31
2023-09-04T08:11:31.648Z,14.94
2023-09-04T08:13:58.630Z,14.28
2023-09-04T08:16:25.892Z,14.59
2023-09-04T08:18:52.777Z,15.38
2023-09-04T08:21:19.874Z,15.45
2023-09-04T08:23:46.930Z,15.48
2023-09-04T08:26:16.058Z,14.81
2023-09-04T08:28:43.997Z,15.95
2023-09-04T08:31:12.096Z,15.12
2023-09-04T08:33:39.308Z,15.21
2023-09-04T08:36:06.168Z,15.43
2023-09-04T08:38:33.071Z,16.18
2023-09-04T08:41:08.662Z,15.17
2023-09-04T08:43:38.419Z,16.08
2023-09-04T08:46:08.640Z,16.62
2023-09-04T08:48:40.409Z,16.05
2023-09-04T08:51:08.102Z,16.98
2023-09-04T08:53:37.067Z,16.93
2023-09-04T08:56:07.561Z,16.64
2023-09-04T08:58:34.353Z,16.96
2023-09-04T09:01:02.160Z,16.82
2023-09-04T09:03:29.554Z,16.62
2023-09-04T09:05:58.316Z,16.70
2023-09-04T09:08:26.006Z,17.39
2023-09-04T09:10:54.310Z,17.20
2023-09-04T09:13:22.028Z,16.77
2023-09-04T09:15:49.079Z,17.76
2023-09-04T09:18:36.258Z,17.61
2023-09-04T09:21:03.129Z,17.59
2023-09-04T09:23:30.628Z,17.82
2023-09-04T09:25:57.636Z,17.87
2023-09-04T09:28:24.958Z,17.83
2023-09-04T09:30:52.171Z,17.84
2023-09-04T09:33:22.300Z,18.35
2023-09-04T09:35:49.206Z,17.02
2023-09-04T09:38:16.076Z,17.48
2023-09-04T09:40:45.773Z,18.43
2023-09-04T09:43:12.672Z,18.67
2023-09-04T09:45:39.551Z,18.00
2023-09-04T09:48:08.082Z,17.99
2023-09-04T09:50:40.680Z,17.29
2023-09-04T09:53:07.590Z,19.27
2023-09-04T09:55:36.043Z,18.08
2023-09-04T09:58:03.261Z,19.44
2023-09-04T10:00:30.507Z,18.16
2023-09-04T10:02:58.825Z,19.58
2023-09-04T10:05:27.186Z,19.42
2023-09-04T10:08:01.637Z,18.99
2023-09-04T10:10:31.767Z,19.62
2023-09-04T10:13:09.557Z,20.20
2023-09-04T10:15:38.088Z,19.34
2023-09-04T10:18:20.440Z,19.44
2023-09-04T10:20:48.270Z,19.20
2023-09-04T10:23:20.571Z,17.89
2023-09-04T10:25:56.508Z,19.92
2023-09-04T10:28:43.306Z,19.25
2023-09-04T10:31:12.022Z,19.42
2023-09-04T10:33:39.484Z,19.85
2023-09-04T10:36:07.006Z,18.95
2023-09-04T10:38:35.149Z,19.60
2023-09-04T10:41:02.607Z,18.04
2023-09-04T10:43:45.443Z,19.22
2023-09-04T10:46:14.417Z,19.72
2023-09-04T10:48:45.093Z,19.53
2023-09-04T10:51:38.131Z,19.67
2023-09-04T10:54:25.826Z,19.94
2023-09-04T10:56:56.906Z,19.24
2023-09-04T10:59:24.045Z,20.12
2023-09-04T11:01:51.258Z,19.88
2023-09-04T11:04:36.669Z,19.97
2023-09-04T11:07:21.881Z,20.11
2023-09-04T11:09:49.678Z,20.40
2023-09-04T11:12:26.070Z,20.25
2023-09-04T11:14:54.540Z,19.28
2023-09-04T11:17:29.500Z,19.51
2023-09-04T11:19:56.730Z,19.17
2023-09-04T11:22:27.710Z,19.71
2023-09-04T11:24:55.910Z,20.36
2023-09-04T11:27:24.322Z,19.53
2023-09-04T11:29:52.191Z,21.59
2023-09-04T11:32:20.474Z,20.41
2023-09-04T11:34:48.667Z,19.84
2023-09-04T11:37:15.770Z,20.37
2023-09-04T11:40:03.356Z,22.00
2023-09-04T11:42:33.635Z,21.12
2023-09-04T11:45:00.572Z,23.41
2023-09-04T11:47:28.181Z,23.68
2023-09-04T11:49:55.179Z,22.87
2023-09-04T11:52:29.749Z,22.37
2023-09-04T11:54:58.056Z,22.28
2023-09-04T11:57:25.360Z,21.81
2023-09-04T11:59:52.374Z,22.53
2023-09-04T12:02:19.431Z,21.31
2023-09-04T12:04:47.598Z,20.57
2023-09-04T12:07:17.588Z,20.82
2023-09-04T12:09:44.714Z,21.36
2023-09-04T12:12:11.830Z,21.35
2023-09-04T12:14:46.133Z,20.02
2023-09-04T12:17:13.368Z,20.38
2023-09-04T12:19:43.537Z,21.34
2023-09-04T12:22:14.792Z,20.20
2023-09-04T12:25:01.301Z,20.50
2023-09-04T12:27:29.658Z,20.27
2023-09-04T12:29:56.725Z,20.11
2023-09-04T12:32:24.793Z,19.89
2023-09-04T12:34:51.943Z,19.93
2023-09-04T12:37:19.424Z,19.82
2023-09-04T12:39:46.322Z,20.24
2023-09-04T12:42:13.102Z,20.78
2023-09-04T12:44:39.939Z,20.19
2023-09-04T12:47:06.928Z,19.79
2023-09-04T12:49:34.750Z,20.66
2023-09-04T12:52:01.671Z,20.37
2023-09-04T12:54:28.484Z,20.13
2023-09-04T12:56:55.656Z,20.02
2023-09-04T12:59:22.586Z,19.38
2023-09-04T13:01:49.435Z,19.90
2023-09-04T13:04:16.216Z,20.38
2023-09-04T13:06:43.010Z,19.93
2023-09-04T13:09:09.875Z,18.77
2023-09-04T13:11:36.776Z,19.51
2023-09-04T13:14:04.189Z,19.95
2023-09-04T13:16:31.099Z,19.74
2023-09-04T13:18:58.225Z,20.04
2023-09-04T13:21:26.564Z,20.68
2023-09-04T13:23:54.573Z,19.22
2023-09-04T13:26:21.377Z,19.17
2023-09-04T13:28:48.140Z,19.01
2023-09-04T13:31:17.342Z,19.14
2023-09-04T13:33:44.457Z,19.18
2023-09-04T13:36:11.246Z,18.14
2023-09-04T13:38:38.081Z,19.32
2023-09-04T13:41:06.624Z,19.85
2023-09-04T13:43:33.540Z,19.25
2023-09-04T13:46:00.344Z,19.36
2023-09-04T13:48:29.122Z,19.44
2023-09-04T13:50:55.943Z,20.02
2023-09-04T13:53:23.180Z,20.40
2023-09-04T13:55:50.234Z,19.41
2023-09-04T13:58:17.065Z,18.55
2023-09-04T14:00:43.966Z,19.18
2023-09-04T14:03:12.469Z,19.00
2023-09-04T14:05:39.486Z,19.21
2023-09-04T14:08:07.427Z,18.63
2023-09-04T14:10:40.121Z,18.09
2023-09-04T14:13:07.781Z,18.75
2023-09-04T14:15:34.709Z,19.06
2023-09-04T14:18:01.556Z,19.16
2023-09-04T14:20:28.404Z,18.75
2023-09-04T14:22:55.304Z,18.80
2023-09-04T14:25:22.134Z,18.15
2023-09-04T14:27:48.890Z,18.51
2023-09-04T14:30:15.749Z,18.13
2023-09-04T14:32:42.598Z,19.42
2023-09-04T14:35:09.594Z,19.52
2023-09-04T14:37:36.408Z,18.94
2023-09-04T14:40:04.522Z,18.02
2023-09-04T14:42:31.530Z,18.74
2023-09-04T14:44:59.085Z,18.06
2023-09-04T14:47:26.090Z,18.11
2023-09-04T14:49:53.092Z,17.66
2023-09-04T14:52:19.976Z,18.51
2023-09-04T14:54:47.106Z,19.05
2023-09-04T14:57:14.082Z,18.63
2023-09-04T14:59:41.073Z,18.05
2023-09-04T15:02:08.267Z,17.62
2023-09-04T15:04:35.094Z,17.47
2023-09-04T15:07:02.128Z,17.52
2023-09-04T15:09:29.334Z,17.83
2023-09-04T15:11:56.169Z,18.39
2023-09-04T15:14:23.294Z,18.01
2023-09-04T15:16:50.087Z,17.24
2023-09-04T15:19:16.828Z,16.85
2023-09-04T15:21:44.575Z,16.74
2023-09-04T15:24:11.505Z,17.89
2023-09-04T15:26:38.304Z,17.04
2023-09-04T15:29:05.798Z,16.59
2023-09-04T15:31:35.453Z,16.86
2023-09-04T15:34:03.216Z,16.19
2023-09-04T15:36:30.249Z,16.51
2023-09-04T15:38:57.808Z,16.03
2023-09-04T15:41:25.482Z,16.79
2023-09-04T15:43:52.579Z,16.74
2023-09-04T15:46:19.504Z,16.34
2023-09-04T15:48:46.843Z,16.32
2023-09-04T15:51:13.741Z,16.85
2023-09-04T15:53:40.972Z,16.98
2023-09-04T15:56:07.773Z,16.73
2023-09-04T15:58:35.034Z,17.53
2023-09-04T16:01:04.471Z,15.59
2023-09-04T16:03:31.576Z,16.66
2023-09-04T16:05:58.480Z,16.08
2023-09-04T16:08:25.472Z,15.43
2023-09-04T16:10:52.441Z,14.35
2023-09-04T16:13:24.845Z,14.87
2023-09-04T16:15:55.659Z,14.58
2023-09-04T16:18:22.896Z,14.79
2023-09-04T16:20:49.878Z,14.23
2023-09-04T16:23:21.473Z,14.02
2023-09-04T16:25:56.399Z,14.16
2023-09-04T16:28:25.559Z,13.76
2023-09-04T16:30:54.131Z,14.48
2023-09-04T16:33:21.917Z,14.09
2023-09-04T16:35:49.728Z,14.48
2023-09-04T16:38:16.613Z,13.61
2023-09-04T16:40:44.061Z,13.59
2023-09-04T16:43:10.924Z,13.90
2023-09-04T16:45:38.288Z,14.04
2023-09-04T16:48:06.404Z,14.25
2023-09-04T16:50:33.728Z,13.43
2023-09-04T16:53:00.870Z,13.92
2023-09-04T16:55:27.765Z,13.06
2023-09-04T16:57:54.812Z,14.10
2023-09-04T17:00:21.746Z,13.53
2023-09-04T17:02:50.449Z,14.03
2023-09-04T17:05:18.963Z,13.93
2023-09-04T17:07:46.406Z,13.89
2023-09-04T17:10:13.639Z,14.17
2023-09-04T17:12:40.443Z,13.65
2023-09-04T17:15:08.039Z,14.12
2023-09-04T17:17:35.103Z,14.04
2023-09-04T17:20:01.969Z,13.33
2023-09-04T17:22:28.782Z,13.79
2023-09-04T17:24:55.584Z,13.60
2023-09-04T17:27:22.659Z,13.69
2023-09-04T17:29:51.559Z,13.39
2023-09-04T17:32:18.373Z,12.88
2023-09-04T17:34:45.152Z,12.86
2023-09-04T17:37:11.967Z,13.29
2023-09-04T17:39:38.704Z,12.57
2023-09-04T17:42:05.700Z,12.45
2023-09-04T17:44:35.842Z,12.20
2023-09-04T17:47:02.669Z,12.51
2023-09-04T17:49:29.783Z,12.35
2023-09-04T17:51:56.599Z,12.75
2023-09-04T17:54:23.369Z,12.58
2023-09-04T17:56:50.093Z,12.50
2023-09-04T17:59:16.921Z,12.23
2023-09-04T18:01:43.680Z,12.13
2023-09-04T18:04:12.139Z,12.20
2023-09-04T18:06:38.998Z,12.07
2023-09-04T18:09:06.097Z,12.05
2023-09-04T18:11:32.923Z,11.92
2023-09-04T18:14:00.285Z,12.13
2023-09-04T18:16:27.171Z,11.46
2023-09-04T18:18:54.079Z,11.68
2023-09-04T18:21:20.934Z,11.80
2023-09-04T18:23:49.714Z,11.70
2023-09-04T18:26:16.907Z,11.17
2023-09-04T18:28:43.852Z,11.48
2023-09-04T18:31:24.144Z,11.58
2023-09-04T18:33:52.619Z,11.47
2023-09-04T18:36:19.736Z,11.34
2023-09-04T18:38:47.275Z,11.67
2023-09-04T18:41:16.632Z,11.24
2023-09-04T18:43:47.189Z,11.56
2023-09-04T18:46:14.098Z,11.05
2023-09-04T18:48:40.993Z,11.04
2023-09-04T18:51:07.793Z,10.89
2023-09-04T18:53:35.920Z,10.71
2023-09-04T18:56:03.028Z,11.44
2023-09-04T18:58:30.002Z,11.04
2023-09-04T19:01:04.216Z,10.45
2023-09-04T19:03:31.273Z,11.00
2023-09-04T19:05:58.372Z,10.45
2023-09-04T19:08:25.588Z,11.05
2023-09-04T19:10:54.145Z,10.56
2023-09-04T19:13:22.107Z,10.33
2023-09-04T19:15:49.044Z,10.37
2023-09-04T19:18:16.015Z,10.31
2023-09-04T19:20:42.892Z,10.12
2023-09-04T19:23:09.758Z,10.25
2023-09-04T19:25:36.947Z,10.37
2023-09-04T19:28:04.137Z,9.73
2023-09-04T19:30:31.846Z,10.13
2023-09-04T19:32:58.917Z,10.28
2023-09-04T19:35:26.022Z,10.12
2023-09-04T19:37:52.835Z,10.22
2023-09-04T19:40:19.762Z,10.09
2023-09-04T19:42:46.704Z,10.20
2023-09-04T19:45:14.426Z,9.91
2023-09-04T19:47:41.407Z,9.70
2023-09-04T19:50:10.067Z,10.17
2023-09-04T19:52:37.315Z,10.28
2023-09-04T19:55:04.903Z,9.99
2023-09-04T19:57:32.282Z,9.84
2023-09-04T20:00:00.802Z,9.98
2023-09-04T20:02:27.837Z,10.07
2023-09-04T20:04:54.902Z,9.56
2023-09-04T20:07:21.784Z,9.88
2023-09-04T20:09:49.657Z,9.41
2023-09-04T20:12:17.507Z,9.10
2023-09-04T20:14:44.357Z,9.38
2023-09-04T20:17:11.162Z,9.65
2023-09-04T20:19:38.025Z,9.36
2023-09-04T20:22:05.093Z,9.17
2023-09-04T20:24:31.894Z,9.60
2023-09-04T20:26:58.858Z,8.71
2023-09-04T20:29:25.668Z,9.11
2023-09-04T20:31:52.632Z,8.58
2023-09-04T20:34:19.553Z,8.90
2023-09-04T20:36:47.973Z,8.78
2023-09-04T20:39:14.846Z,8.85
2023-09-04T20:41:41.606Z,8.49
2023-09-04T20:44:08.370Z,8.04
2023-09-04T20:46:37.172Z,8.42
2023-09-04T20:49:04.298Z,8.08
2023-09-04T20:51:31.408Z,8.31
2023-09-04T20:53:58.232Z,8.53
2023-09-04T20:56:25.023Z,8.18
2023-09-04T20:58:51.778Z,8.37
2023-09-04T21:01:18.606Z,8.30
2023-09-04T21:03:45.514Z,8.39
2023-09-04T21:06:13.579Z,8.27
2023-09-04T21:08:40.533Z,8.28
2023-09-04T21:11:08.447Z,7.86
2023-09-04T21:13:53.874Z,8.39
2023-09-04T21:16:39.303Z,8.15
2023-09-04T21:19:24.773Z,8.39
2023-09-04T21:22:10.333Z,7.91
2023-09-04T21:24:55.575Z,7.67
2023-09-04T21:27:40.925Z,7.99
2023-09-04T21:30:26.862Z,7.96
2023-09-04T21:33:12.561Z,7.93
2023-09-04T21:35:58.037Z,7.87
2023-09-04T21:38:43.366Z,7.81
2023-09-04T21:41:28.699Z,8.25
2023-09-04T21:44:14.014Z,7.86
2023-09-04T21:46:59.072Z,8.07
2023-09-04T21:49:44.635Z,7.76
2023-09-04T21:52:29.936Z,7.71
2023-09-04T21:55:15.368Z,8.28
2023-09-04T21:58:00.700Z,7.73
2023-09-04T22:00:46.189Z,7.77
2023-09-04T22:03:31.650Z,7.81
2023-09-04T22:06:21.367Z,7.96
2023-09-04T22:09:06.964Z,7.55
2023-09-04T22:11:52.734Z,7.78
2023-09-04T22:14:38.008Z,8.13
2023-09-04T22:17:23.392Z,7.79
2023-09-04T22:20:08.701Z,7.71
2023-09-04T22:22:54.042Z,7.35
2023-09-04T22:25:39.441Z,7.78
2023-09-04T22:28:24.447Z,7.79
2023-09-04T22:31:09.899Z,7.53
2023-09-04T22:33:55.268Z,6.99
2023-09-04T22:36:40.693Z,7.27
2023-09-04T22:39:25.972Z,7.51
2023-09-04T22:42:11.653Z,6.97
2023-09-04T22:44:56.926Z,6.91
2023-09-04T22:47:42.277Z,6.77
2023-09-04T22:50:27.688Z,6.88
2023-09-04T22:53:12.981Z,7.36
2023-09-04T22:55:58.511Z,6.99
2023-09-04T22:58:43.797Z,7.26
2023-09-04T23:01:29.426Z,6.68
2023-09-04T23:04:15.222Z,7.01
2023-09-04T23:07:00.495Z,6.99
2023-09-04T23:09:45.995Z,7.09
2023-09-04T23:12:31.337Z,7.17
2023-09-04T23:15:16.748Z,6.87
2023-09-04T23:18:02.285Z,7.04
2023-09-04T23:20:47.391Z,7.60
2023-09-04T23:23:15.116Z,7.27
2023-09-04T23:25:46.336Z,7.62
2023-09-04T23:28:13.952Z,7.17
2023-09-04T23:30:40.804Z,7.37
2023-09-04T23:33:12.316Z,7.11
2023-09-04T23:36:06.210Z,6.57
2023-09-04T23:38:51.888Z,6.70
2023-09-04T23:41:55.093Z,6.58
2023-09-04T23:44:40.639Z,7.17
2023-09-04T23:47:07.500Z,6.95
2023-09-04T23:49:35.127Z,6.74
2023-09-04T23:52:02.791Z,6.66
2023-09-04T23:54:30.245Z,6.70
2023-09-04T23:56:57.680Z,6.50
2023-09-04T23:59:29.565Z,6.49
